createdAt,value
2022-08-07T00:04:17.137Z,69.0
2022-08-07T00:09:21.375Z,69.2
2022-08-07T00:14:17.123Z,69.4
2022-08-07T00:19:21.540Z,69.5
2022-08-07T00:24:17.153Z,69.6
2022-08-07T00:29:17.122Z,69.7
2022-08-07T00:34:17.133Z,70.0
2022-08-07T00:39:17.344Z,70.3
2022-08-07T00:44:17.124Z,70.4
2022-08-07T00:50:16.728Z,70.6
2022-08-07T00:54:19.639Z,70.7
2022-08-07T00:59:17.134Z,70.9
2022-08-07T01:04:24.825Z,71.0
2022-08-07T01:10:03.998Z,71.2
2022-08-07T01:14:17.134Z,71.3
2022-08-07T01:19:18.951Z,71.5
2022-08-07T01:24:21.208Z,71.6
2022-08-07T01:29:17.137Z,72.0
2022-08-07T01:34:17.138Z,72.2
2022-08-07T01:39:17.211Z,72.5
2022-08-07T01:44:17.135Z,72.7
2022-08-07T01:49:17.160Z,72.8
2022-08-07T01:54:32.490Z,73.0
2022-08-07T01:59:17.135Z,73.1
2022-08-07T02:04:17.225Z,73.5
2022-08-07T02:09:33.792Z,73.8
2022-08-07T02:14:35.961Z,74.2
2022-08-07T02:20:04.182Z,74.5
2022-08-07T02:24:17.695Z,74.8
2022-08-07T02:29:17.154Z,75.0
2022-08-07T02:34:17.147Z,75.2
2022-08-07T02:39:43.738Z,75.6
2022-08-07T02:44:17.165Z,76.0
2022-08-07T02:49:55.586Z,76.4
2022-08-07T02:54:17.152Z,76.6
2022-08-07T02:59:17.197Z,76.8
2022-08-07T03:04:17.167Z,76.9
2022-08-07T03:09:42.243Z,77.1
2022-08-07T03:14:17.188Z,77.2
2022-08-07T03:19:17.182Z,77.1
2022-08-07T03:24:20.298Z,77.0
2022-08-07T03:29:17.201Z,77.1
2022-08-07T03:34:18.453Z,77.3
2022-08-07T03:39:17.238Z,77.5
2022-08-07T03:44:17.189Z,77.5
2022-08-07T03:49:17.182Z,77.6
2022-08-07T03:54:35.656Z,77.6
2022-08-07T03:59:17.272Z,77.7
2022-08-07T04:04:17.740Z,77.8
2022-08-07T04:09:19.389Z,78.0
2022-08-07T04:14:38.401Z,78.0
2022-08-07T04:19:17.359Z,78.2
2022-08-07T04:24:34.259Z,78.4
2022-08-07T04:29:17.201Z,78.5
2022-08-07T04:34:23.947Z,78.6
2022-08-07T04:39:17.629Z,78.6
2022-08-07T04:44:18.817Z,78.7
2022-08-07T04:49:18.419Z,78.5
2022-08-07T04:54:17.216Z,78.5
2022-08-07T05:00:09.540Z,78.5
2022-08-07T05:04:18.129Z,78.7
2022-08-07T05:09:17.222Z,78.8
2022-08-07T05:14:53.189Z,78.9
2022-08-07T05:19:17.235Z,78.9
2022-08-07T05:24:17.247Z,78.8
2022-08-07T05:29:17.252Z,78.6
2022-08-07T05:34:17.239Z,78.3
2022-08-07T05:40:13.833Z,77.9
2022-08-07T05:44:17.222Z,77.7
2022-08-07T05:49:17.359Z,77.7
2022-08-07T05:54:30.552Z,77.2
2022-08-07T05:59:17.268Z,76.8
2022-08-07T06:04:17.342Z,75.9
2022-08-07T06:09:17.303Z,74.7
2022-08-07T06:14:21.454Z,74.0
2022-08-07T06:19:17.958Z,73.8
2022-08-07T06:24:45.354Z,73.1
2022-08-07T06:29:17.287Z,72.0
2022-08-07T06:34:19.444Z,71.3
2022-08-07T06:40:19.759Z,71.0
2022-08-07T06:44:17.295Z,70.5
2022-08-07T06:49:17.298Z,69.4
2022-08-07T06:55:32.081Z,68.5
2022-08-07T07:00:13.788Z,67.4
2022-08-07T07:04:28.303Z,66.7
2022-08-07T07:09:17.310Z,66.2
2022-08-07T07:14:17.326Z,65.5
2022-08-07T07:19:55.341Z,64.9
2022-08-07T07:24:17.542Z,64.4
2022-08-07T07:29:56.426Z,63.6
2022-08-07T07:34:17.319Z,63.2
2022-08-07T07:39:17.379Z,63.1
2022-08-07T07:44:26.139Z,62.5
2022-08-07T07:50:34.581Z,61.9
2022-08-07T07:54:17.338Z,61.4
2022-08-07T07:59:17.338Z,60.8
2022-08-07T08:04:17.382Z,60.3
2022-08-07T08:09:17.346Z,59.9
2022-08-07T08:14:21.422Z,59.7
2022-08-07T08:20:16.380Z,59.5
2022-08-07T08:24:36.217Z,59.4
2022-08-07T08:29:17.340Z,59.5
2022-08-07T08:34:27.081Z,59.0
2022-08-07T08:39:17.410Z,58.5
2022-08-07T08:44:17.331Z,57.6
2022-08-07T08:49:17.346Z,56.9
2022-08-07T08:54:17.351Z,56.2
2022-08-07T08:59:17.343Z,56.5
2022-08-07T09:04:17.350Z,56.2
2022-08-07T09:09:21.047Z,56.0
2022-08-07T09:14:17.337Z,56.1
2022-08-07T09:19:52.703Z,56.3
2022-08-07T09:24:28.433Z,56.0
2022-08-07T09:30:00.712Z,56.3
2022-08-07T09:34:17.378Z,56.4
2022-08-07T09:39:54.834Z,55.6
2022-08-07T09:44:19.985Z,55.1
2022-08-07T09:50:00.612Z,54.9
2022-08-07T09:54:17.370Z,54.3
2022-08-07T09:59:18.867Z,53.5
2022-08-07T10:04:17.420Z,51.9
2022-08-07T10:09:17.364Z,52.1
2022-08-07T10:14:23.042Z,51.1
2022-08-07T10:19:17.384Z,51.1
2022-08-07T10:24:21.320Z,51.0
2022-08-07T10:29:17.361Z,50.8
2022-08-07T10:34:18.472Z,50.7
2022-08-07T10:39:17.509Z,50.5
2022-08-07T10:44:19.264Z,50.5
2022-08-07T10:49:24.639Z,51.3
2022-08-07T10:54:17.467Z,51.9
2022-08-07T10:59:21.480Z,51.6
2022-08-07T11:10:09.714Z,50.5
2022-08-07T11:14:45.254Z,49.2
2022-08-07T11:19:21.665Z,48.1
2022-08-07T11:24:17.371Z,46.9
2022-08-07T11:29:42.839Z,45.7
2022-08-07T11:34:17.385Z,44.0
2022-08-07T11:39:19.881Z,43.8
2022-08-07T11:44:18.590Z,43.8
2022-08-07T11:49:51.068Z,43.5
2022-08-07T11:54:17.403Z,43.1
2022-08-07T12:00:08.256Z,42.6
2022-08-07T12:04:17.389Z,42.5
2022-08-07T12:09:23.787Z,42.5
2022-08-07T12:14:19.175Z,42.9
2022-08-07T12:19:21.711Z,42.5
2022-08-07T12:24:37.644Z,42.8
2022-08-07T12:29:37.091Z,43.0
2022-08-07T12:34:17.394Z,43.5
2022-08-07T12:39:43.052Z,43.4
2022-08-07T12:44:17.502Z,44.3
2022-08-07T12:49:25.582Z,44.5
2022-08-07T12:54:38.646Z,44.4
2022-08-07T12:59:20.840Z,44.5
2022-08-07T13:04:31.641Z,44.5
2022-08-07T13:10:21.994Z,44.6
2022-08-07T13:14:17.398Z,45.1
2022-08-07T13:19:21.860Z,45.5
2022-08-07T13:24:17.420Z,45.3
2022-08-07T13:29:17.421Z,44.8
2022-08-07T13:34:30.213Z,44.5
2022-08-07T13:39:28.385Z,44.1
2022-08-07T13:44:17.436Z,43.5
2022-08-07T13:50:32.784Z,43.8
2022-08-07T13:54:23.582Z,43.3
2022-08-07T13:59:17.423Z,42.8
2022-08-07T14:04:21.263Z,42.3
2022-08-07T14:10:01.419Z,42.7
2022-08-07T14:14:17.436Z,42.8
2022-08-07T14:20:40.692Z,43.4
2022-08-07T14:24:17.451Z,43.8
2022-08-07T14:30:11.106Z,43.7
2022-08-07T14:34:20.098Z,43.2
2022-08-07T14:40:17.848Z,43.0
2022-08-07T14:44:17.452Z,43.0
2022-08-07T14:49:56.718Z,42.7
2022-08-07T14:54:31.622Z,42.9
2022-08-07T15:00:04.695Z,42.7
2022-08-07T15:04:17.438Z,42.9
2022-08-07T15:09:57.439Z,43.0
2022-08-07T15:14:17.496Z,43.3
2022-08-07T15:19:17.446Z,43.3
2022-08-07T15:25:16.237Z,42.9
2022-08-07T15:30:09.324Z,42.9
2022-08-07T15:34:17.463Z,42.7
2022-08-07T15:39:17.499Z,42.7
2022-08-07T15:44:17.438Z,42.9
2022-08-07T15:49:17.458Z,43.1
2022-08-07T15:54:17.454Z,43.1
2022-08-07T15:59:17.521Z,43.3
2022-08-07T16:04:17.470Z,43.4
2022-08-07T16:09:22.564Z,43.4
2022-08-07T16:14:19.339Z,43.3
2022-08-07T16:19:17.478Z,43.6
2022-08-07T16:24:34.329Z,43.8
2022-08-07T16:30:05.889Z,43.9
2022-08-07T16:34:23.587Z,44.2
2022-08-07T16:39:20.940Z,44.7
2022-08-07T16:44:40.390Z,44.8
2022-08-07T16:50:27.401Z,44.9
2022-08-07T16:54:19.235Z,45.3
2022-08-07T16:59:17.872Z,45.9
2022-08-07T17:04:17.471Z,46.8
2022-08-07T17:10:06.561Z,47.4
2022-08-07T17:14:19.911Z,47.8
2022-08-07T17:19:17.466Z,47.8
2022-08-07T17:24:17.463Z,47.9
2022-08-07T17:30:12.390Z,48.3
2022-08-07T17:34:34.866Z,48.8
2022-08-07T17:39:17.488Z,49.3
2022-08-07T17:44:41.392Z,50.3
2022-08-07T17:49:23.893Z,50.8
2022-08-07T17:54:29.651Z,51.1
2022-08-07T17:59:19.980Z,51.4
2022-08-07T18:04:17.459Z,51.8
2022-08-07T18:09:17.514Z,52.0
2022-08-07T18:14:17.487Z,52.5
2022-08-07T18:21:12.328Z,52.8
2022-08-07T18:24:28.386Z,53.2
2022-08-07T18:30:04.375Z,53.8
2022-08-07T18:34:37.900Z,54.2
2022-08-07T18:40:06.753Z,54.8
2022-08-07T18:44:17.490Z,55.1
2022-08-07T18:50:31.820Z,55.6
2022-08-07T18:54:30.701Z,56.0
2022-08-07T18:59:57.221Z,56.6
2022-08-07T19:04:28.103Z,57.0
2022-08-07T19:09:55.794Z,57.3
2022-08-07T19:14:20.308Z,57.6
2022-08-07T19:19:17.492Z,58.0
2022-08-07T19:24:30.980Z,58.3
2022-08-07T19:31:00.765Z,58.9
2022-08-07T19:34:32.529Z,59.3
2022-08-07T19:39:17.698Z,59.8
2022-08-07T19:44:22.020Z,60.2
2022-08-07T19:49:17.467Z,60.6
2022-08-07T19:54:31.421Z,61.1
2022-08-07T19:59:17.492Z,61.8
2022-08-07T20:04:32.218Z,62.1
2022-08-07T20:10:33.918Z,62.4
2022-08-07T20:14:20.858Z,63.0
2022-08-07T20:19:17.519Z,63.4
2022-08-07T20:24:17.525Z,63.6
2022-08-07T20:29:49.051Z,64.1
2022-08-07T20:34:29.496Z,64.5
2022-08-07T20:39:52.024Z,64.7
2022-08-07T20:44:17.523Z,65.1
2022-08-07T20:49:59.942Z,65.4
2022-08-07T20:54:29.754Z,65.6
2022-08-07T21:00:04.316Z,66.2
2022-08-07T21:04:23.387Z,66.5
2022-08-07T21:09:17.525Z,66.9
2022-08-07T21:14:32.019Z,67.4
2022-08-07T21:19:17.533Z,67.7
2022-08-07T21:24:17.541Z,67.9
2022-08-07T21:29:17.531Z,68.3
2022-08-07T21:34:18.256Z,68.7
2022-08-07T21:39:45.252Z,69.0
2022-08-07T21:44:28.333Z,69.3
2022-08-07T21:49:17.500Z,69.7
2022-08-07T21:54:18.820Z,69.9
2022-08-07T21:59:17.534Z,70.3
2022-08-07T22:04:20.241Z,70.5
2022-08-07T22:09:17.540Z,70.6
2022-08-07T22:14:34.707Z,71.0
2022-08-07T22:19:17.531Z,71.3
2022-08-07T22:24:17.554Z,71.4
2022-08-07T22:29:17.547Z,72.0
2022-08-07T22:34:17.541Z,72.5
2022-08-07T22:39:17.559Z,72.7
2022-08-07T22:44:18.696Z,72.9
2022-08-07T22:49:17.540Z,73.0
2022-08-07T22:54:17.557Z,72.8
2022-08-07T22:59:17.567Z,73.2
2022-08-07T23:04:17.529Z,73.4
2022-08-07T23:10:04.410Z,73.4
2022-08-07T23:14:17.544Z,73.3
2022-08-07T23:19:17.552Z,73.6
2022-08-07T23:24:17.565Z,73.8
2022-08-07T23:34:21.243Z,74.5
2022-08-07T23:39:17.596Z,74.5
2022-08-07T23:44:17.550Z,74.7
2022-08-07T23:49:17.564Z,74.7
2022-08-07T23:54:28.430Z,75.0
